sensor_id;sensor_type;location;lat;lon;timestamp;temperature;humidity
28863;DHT22;15994;51.796;13.006;2023-02-03T00:01:46;4.00;99.90
28863;DHT22;15994;51.796;13.006;2023-02-03T00:04:13;4.00;99.90
28863;DHT22;15994;51.796;13.006;2023-02-03T00:06:40;4.10;99.90
28863;DHT22;15994;51.796;13.006;2023-02-03T00:09:07;4.10;99.90
28863;DHT22;15994;51.796;13.006;2023-02-03T00:11:34;4.10;99.90
28863;DHT22;15994;51.796;13.006;2023-02-03T00:14:00;4.10;99.90
28863;DHT22;15994;51.796;13.006;2023-02-03T00:16:29;4.20;99.90
28863;DHT22;15994;51.796;13.006;2023-02-03T00:18:56;4.10;99.90
28863;DHT22;15994;51.796;13.006;2023-02-03T00:21:22;4.20;99.90
28863;DHT22;15994;51.796;13.006;2023-02-03T00:23:49;4.20;99.90
28863;DHT22;15994;51.796;13.006;2023-02-03T00:26:16;4.20;99.90
28863;DHT22;15994;51.796;13.006;2023-02-03T00:28:44;4.20;99.90
28863;DHT22;15994;51.796;13.006;2023-02-03T00:31:21;4.20;99.90
28863;DHT22;15994;51.796;13.006;2023-02-03T00:33:53;4.20;99.90
28863;DHT22;15994;51.796;13.006;2023-02-03T00:36:20;4.20;99.90
28863;DHT22;15994;51.796;13.006;2023-02-03T00:38:47;4.20;99.90
28863;DHT22;15994;51.796;13.006;2023-02-03T00:41:14;4.20;99.90
28863;DHT22;15994;51.796;13.006;2023-02-03T00:43:41;4.20;99.90
28863;DHT22;15994;51.796;13.006;2023-02-03T00:46:08;4.20;99.90
28863;DHT22;15994;51.796;13.006;2023-02-03T00:48:34;4.20;99.90
28863;DHT22;15994;51.796;13.006;2023-02-03T00:51:01;4.20;99.90
28863;DHT22;15994;51.796;13.006;2023-02-03T00:53:27;4.20;99.90
28863;DHT22;15994;51.796;13.006;2023-02-03T00:55:54;4.20;99.90
28863;DHT22;15994;51.796;13.006;2023-02-03T00:58:20;4.10;99.90
28863;DHT22;15994;51.796;13.006;2023-02-03T01:00:47;4.10;99.90
28863;DHT22;15994;51.796;13.006;2023-02-03T01:03:13;4.10;99.90
28863;DHT22;15994;51.796;13.006;2023-02-03T01:05:41;4.10;99.90
28863;DHT22;15994;51.796;13.006;2023-02-03T01:08:07;4.10;99.90
28863;DHT22;15994;51.796;13.006;2023-02-03T01:10:36;4.10;99.90
28863;DHT22;15994;51.796;13.006;2023-02-03T01:13:03;4.10;99.90
28863;DHT22;15994;51.796;13.006;2023-02-03T01:15:29;3.90;99.90
28863;DHT22;15994;51.796;13.006;2023-02-03T01:17:56;3.90;99.90
28863;DHT22;15994;51.796;13.006;2023-02-03T01:20:22;3.90;99.90
28863;DHT22;15994;51.796;13.006;2023-02-03T01:22:49;3.90;99.90
28863;DHT22;15994;51.796;13.006;2023-02-03T01:25:15;3.90;99.90
28863;DHT22;15994;51.796;13.006;2023-02-03T01:27:42;3.80;99.90
28863;DHT22;15994;51.796;13.006;2023-02-03T01:30:09;3.90;99.90
28863;DHT22;15994;51.796;13.006;2023-02-03T01:32:36;3.80;99.90
28863;DHT22;15994;51.796;13.006;2023-02-03T01:35:02;3.80;99.90
28863;DHT22;15994;51.796;13.006;2023-02-03T01:37:29;3.80;99.90
28863;DHT22;15994;51.796;13.006;2023-02-03T01:39:55;3.70;99.90
28863;DHT22;15994;51.796;13.006;2023-02-03T01:42:22;3.70;99.90
28863;DHT22;15994;51.796;13.006;2023-02-03T01:44:51;3.80;99.90
28863;DHT22;15994;51.796;13.006;2023-02-03T01:47:26;3.80;99.90
28863;DHT22;15994;51.796;13.006;2023-02-03T01:50:10;3.80;99.90
28863;DHT22;15994;51.796;13.006;2023-02-03T01:52:40;3.80;99.90
28863;DHT22;15994;51.796;13.006;2023-02-03T01:55:10;3.80;99.90
28863;DHT22;15994;51.796;13.006;2023-02-03T01:57:53;3.80;99.90
28863;DHT22;15994;51.796;13.006;2023-02-03T02:00:21;3.80;99.90
28863;DHT22;15994;51.796;13.006;2023-02-03T02:02:48;3.90;99.90
28863;DHT22;15994;51.796;13.006;2023-02-03T02:07:55;3.90;99.90
28863;DHT22;15994;51.796;13.006;2023-02-03T02:10:23;3.90;99.90
28863;DHT22;15994;51.796;13.006;2023-02-03T02:12:50;3.90;99.90
28863;DHT22;15994;51.796;13.006;2023-02-03T02:15:20;3.90;99.90
28863;DHT22;15994;51.796;13.006;2023-02-03T02:18:12;3.90;99.90
28863;DHT22;15994;51.796;13.006;2023-02-03T02:20:46;3.80;99.90
28863;DHT22;15994;51.796;13.006;2023-02-03T02:23:54;3.70;99.90
28863;DHT22;15994;51.796;13.006;2023-02-03T02:26:43;3.80;99.90
28863;DHT22;15994;51.796;13.006;2023-02-03T02:35:43;3.80;99.90
28863;DHT22;15994;51.796;13.006;2023-02-03T02:40:54;3.80;99.90
28863;DHT22;15994;51.796;13.006;2023-02-03T02:43:28;3.90;99.90
28863;DHT22;15994;51.796;13.006;2023-02-03T02:46:08;3.80;99.90
28863;DHT22;15994;51.796;13.006;2023-02-03T02:48:47;3.90;99.90
28863;DHT22;15994;51.796;13.006;2023-02-03T02:51:16;3.90;99.90
28863;DHT22;15994;51.796;13.006;2023-02-03T02:53:49;3.90;99.90
28863;DHT22;15994;51.796;13.006;2023-02-03T02:56:18;3.90;99.90
28863;DHT22;15994;51.796;13.006;2023-02-03T02:58:47;3.90;99.90
28863;DHT22;15994;51.796;13.006;2023-02-03T03:01:15;3.90;99.90
28863;DHT22;15994;51.796;13.006;2023-02-03T03:03:42;4.00;99.90
28863;DHT22;15994;51.796;13.006;2023-02-03T03:06:31;4.00;99.90
28863;DHT22;15994;51.796;13.006;2023-02-03T03:09:02;4.00;99.90
28863;DHT22;15994;51.796;13.006;2023-02-03T03:11:39;4.10;99.90
28863;DHT22;15994;51.796;13.006;2023-02-03T03:14:10;4.10;99.90
28863;DHT22;15994;51.796;13.006;2023-02-03T03:16:38;4.20;99.90
28863;DHT22;15994;51.796;13.006;2023-02-03T03:19:12;4.20;99.90
28863;DHT22;15994;51.796;13.006;2023-02-03T03:21:44;4.20;99.90
28863;DHT22;15994;51.796;13.006;2023-02-03T03:24:17;4.20;99.90
28863;DHT22;15994;51.796;13.006;2023-02-03T03:27:01;4.30;99.90
28863;DHT22;15994;51.796;13.006;2023-02-03T03:29:45;4.30;99.90
28863;DHT22;15994;51.796;13.006;2023-02-03T03:32:13;4.40;99.90
28863;DHT22;15994;51.796;13.006;2023-02-03T03:34:40;4.40;99.90
28863;DHT22;15994;51.796;13.006;2023-02-03T03:37:19;4.50;99.90
28863;DHT22;15994;51.796;13.006;2023-02-03T03:40:00;4.50;99.90
28863;DHT22;15994;51.796;13.006;2023-02-03T03:42:33;4.60;99.90
28863;DHT22;15994;51.796;13.006;2023-02-03T03:45:11;4.70;99.90
28863;DHT22;15994;51.796;13.006;2023-02-03T03:47:48;4.70;99.90
28863;DHT22;15994;51.796;13.006;2023-02-03T03:50:21;4.70;99.90
28863;DHT22;15994;51.796;13.006;2023-02-03T03:52:49;4.80;99.90
28863;DHT22;15994;51.796;13.006;2023-02-03T03:55:18;4.90;99.90
28863;DHT22;15994;51.796;13.006;2023-02-03T03:57:53;4.90;99.90
28863;DHT22;15994;51.796;13.006;2023-02-03T04:00:23;5.00;99.90
28863;DHT22;15994;51.796;13.006;2023-02-03T04:02:53;5.10;99.90
28863;DHT22;15994;51.796;13.006;2023-02-03T04:05:22;5.10;99.90
28863;DHT22;15994;51.796;13.006;2023-02-03T04:07:49;5.20;99.90
28863;DHT22;15994;51.796;13.006;2023-02-03T04:10:32;5.30;99.90
28863;DHT22;15994;51.796;13.006;2023-02-03T04:12:59;5.30;99.90
28863;DHT22;15994;51.796;13.006;2023-02-03T04:15:27;5.40;99.90
28863;DHT22;15994;51.796;13.006;2023-02-03T04:17:53;5.40;99.90
28863;DHT22;15994;51.796;13.006;2023-02-03T04:20:22;5.50;99.90
28863;DHT22;15994;51.796;13.006;2023-02-03T04:22:48;5.60;99.90
28863;DHT22;15994;51.796;13.006;2023-02-03T04:25:15;5.60;99.90
28863;DHT22;15994;51.796;13.006;2023-02-03T04:27:42;5.70;99.90
28863;DHT22;15994;51.796;13.006;2023-02-03T04:30:09;5.70;99.90
28863;DHT22;15994;51.796;13.006;2023-02-03T04:32:36;5.80;99.90
28863;DHT22;15994;51.796;13.006;2023-02-03T04:35:04;5.80;99.90
28863;DHT22;15994;51.796;13.006;2023-02-03T04:37:31;5.80;99.90
28863;DHT22;15994;51.796;13.006;2023-02-03T04:39:57;5.80;99.90
28863;DHT22;15994;51.796;13.006;2023-02-03T04:42:24;5.90;99.90
28863;DHT22;15994;51.796;13.006;2023-02-03T04:44:51;5.90;99.90
28863;DHT22;15994;51.796;13.006;2023-02-03T04:47:18;5.90;99.90
28863;DHT22;15994;51.796;13.006;2023-02-03T04:49:45;5.90;99.90
28863;DHT22;15994;51.796;13.006;2023-02-03T04:52:11;5.90;99.90
28863;DHT22;15994;51.796;13.006;2023-02-03T04:54:38;5.90;99.90
28863;DHT22;15994;51.796;13.006;2023-02-03T04:57:05;5.90;99.90
28863;DHT22;15994;51.796;13.006;2023-02-03T04:59:32;6.00;99.90
28863;DHT22;15994;51.796;13.006;2023-02-03T05:02:01;6.00;99.90
28863;DHT22;15994;51.796;13.006;2023-02-03T05:04:28;6.00;99.90
28863;DHT22;15994;51.796;13.006;2023-02-03T05:06:54;6.10;99.90
28863;DHT22;15994;51.796;13.006;2023-02-03T05:09:24;6.10;99.90
28863;DHT22;15994;51.796;13.006;2023-02-03T05:11:51;6.10;99.90
28863;DHT22;15994;51.796;13.006;2023-02-03T05:14:18;6.10;99.90
28863;DHT22;15994;51.796;13.006;2023-02-03T05:16:45;6.10;99.90
28863;DHT22;15994;51.796;13.006;2023-02-03T05:19:11;6.10;99.90
28863;DHT22;15994;51.796;13.006;2023-02-03T05:21:38;6.20;99.90
28863;DHT22;15994;51.796;13.006;2023-02-03T05:24:05;6.20;99.90
28863;DHT22;15994;51.796;13.006;2023-02-03T05:26:33;6.20;99.90
28863;DHT22;15994;51.796;13.006;2023-02-03T05:29:00;6.20;99.90
28863;DHT22;15994;51.796;13.006;2023-02-03T05:31:26;6.30;99.90
28863;DHT22;15994;51.796;13.006;2023-02-03T05:33:54;6.30;99.90
28863;DHT22;15994;51.796;13.006;2023-02-03T05:36:20;6.40;99.90
28863;DHT22;15994;51.796;13.006;2023-02-03T05:38:47;6.40;99.90
28863;DHT22;15994;51.796;13.006;2023-02-03T05:41:13;6.50;99.90
28863;DHT22;15994;51.796;13.006;2023-02-03T05:46:25;6.60;99.90
28863;DHT22;15994;51.796;13.006;2023-02-03T05:48:51;6.60;99.90
28863;DHT22;15994;51.796;13.006;2023-02-03T05:51:18;6.60;99.90
28863;DHT22;15994;51.796;13.006;2023-02-03T05:53:44;6.70;99.90
28863;DHT22;15994;51.796;13.006;2023-02-03T05:56:11;6.70;99.90
28863;DHT22;15994;51.796;13.006;2023-02-03T05:58:37;6.80;99.90
28863;DHT22;15994;51.796;13.006;2023-02-03T06:01:04;6.80;99.90
28863;DHT22;15994;51.796;13.006;2023-02-03T06:03:30;6.80;99.90
28863;DHT22;15994;51.796;13.006;2023-02-03T06:05:57;6.80;99.90
28863;DHT22;15994;51.796;13.006;2023-02-03T06:08:23;6.80;99.90
28863;DHT22;15994;51.796;13.006;2023-02-03T06:10:56;6.80;99.90
28863;DHT22;15994;51.796;13.006;2023-02-03T06:13:23;6.80;99.90
28863;DHT22;15994;51.796;13.006;2023-02-03T06:15:50;6.80;99.90
28863;DHT22;15994;51.796;13.006;2023-02-03T06:18:16;6.90;99.90
28863;DHT22;15994;51.796;13.006;2023-02-03T06:20:43;6.90;99.90
28863;DHT22;15994;51.796;13.006;2023-02-03T06:23:09;6.90;99.90
28863;DHT22;15994;51.796;13.006;2023-02-03T06:25:36;6.90;99.90
28863;DHT22;15994;51.796;13.006;2023-02-03T06:28:02;6.90;99.90
28863;DHT22;15994;51.796;13.006;2023-02-03T06:30:29;7.00;99.90
28863;DHT22;15994;51.796;13.006;2023-02-03T06:32:55;7.00;99.90
28863;DHT22;15994;51.796;13.006;2023-02-03T06:35:22;7.10;99.90
28863;DHT22;15994;51.796;13.006;2023-02-03T06:37:48;7.10;99.90
28863;DHT22;15994;51.796;13.006;2023-02-03T06:40:15;7.10;99.90
28863;DHT22;15994;51.796;13.006;2023-02-03T06:42:44;7.20;99.90
28863;DHT22;15994;51.796;13.006;2023-02-03T06:45:12;7.20;99.90
28863;DHT22;15994;51.796;13.006;2023-02-03T06:47:43;7.20;99.90
28863;DHT22;15994;51.796;13.006;2023-02-03T06:50:14;7.20;99.90
28863;DHT22;15994;51.796;13.006;2023-02-03T06:52:41;7.20;99.90
28863;DHT22;15994;51.796;13.006;2023-02-03T06:55:08;7.20;99.90
28863;DHT22;15994;51.796;13.006;2023-02-03T06:57:42;7.20;99.90
28863;DHT22;15994;51.796;13.006;2023-02-03T07:00:09;7.20;99.90
28863;DHT22;15994;51.796;13.006;2023-02-03T07:02:36;7.20;99.90
28863;DHT22;15994;51.796;13.006;2023-02-03T07:05:02;7.30;99.90
28863;DHT22;15994;51.796;13.006;2023-02-03T07:07:29;7.30;99.90
28863;DHT22;15994;51.796;13.006;2023-02-03T07:09:57;7.30;99.90
28863;DHT22;15994;51.796;13.006;2023-02-03T07:12:23;7.30;99.90
28863;DHT22;15994;51.796;13.006;2023-02-03T07:14:50;7.30;99.90
28863;DHT22;15994;51.796;13.006;2023-02-03T07:17:16;7.30;99.90
28863;DHT22;15994;51.796;13.006;2023-02-03T07:19:43;7.30;99.90
28863;DHT22;15994;51.796;13.006;2023-02-03T07:22:10;7.30;99.90
28863;DHT22;15994;51.796;13.006;2023-02-03T07:24:37;7.30;99.90
28863;DHT22;15994;51.796;13.006;2023-02-03T07:27:03;7.40;99.90
28863;DHT22;15994;51.796;13.006;2023-02-03T07:29:29;7.40;99.90
28863;DHT22;15994;51.796;13.006;2023-02-03T07:31:56;7.40;99.90
28863;DHT22;15994;51.796;13.006;2023-02-03T07:34:22;7.40;99.90
28863;DHT22;15994;51.796;13.006;2023-02-03T07:36:49;7.40;99.90
28863;DHT22;15994;51.796;13.006;2023-02-03T07:39:15;7.40;99.90
28863;DHT22;15994;51.796;13.006;2023-02-03T07:41:42;7.50;99.90
28863;DHT22;15994;51.796;13.006;2023-02-03T07:44:08;7.50;99.90
28863;DHT22;15994;51.796;13.006;2023-02-03T07:46:35;7.40;99.90
28863;DHT22;15994;51.796;13.006;2023-02-03T07:49:04;7.40;99.90
28863;DHT22;15994;51.796;13.006;2023-02-03T07:51:31;7.40;99.90
28863;DHT22;15994;51.796;13.006;2023-02-03T07:53:57;7.40;99.90
28863;DHT22;15994;51.796;13.006;2023-02-03T07:56:24;7.40;99.90
28863;DHT22;15994;51.796;13.006;2023-02-03T07:58:53;7.40;99.90
28863;DHT22;15994;51.796;13.006;2023-02-03T08:01:20;7.40;99.90
28863;DHT22;15994;51.796;13.006;2023-02-03T08:03:46;7.40;99.90
28863;DHT22;15994;51.796;13.006;2023-02-03T08:06:13;7.40;99.90
28863;DHT22;15994;51.796;13.006;2023-02-03T08:08:39;7.40;99.90
28863;DHT22;15994;51.796;13.006;2023-02-03T08:11:06;7.40;99.90
28863;DHT22;15994;51.796;13.006;2023-02-03T08:13:33;7.50;99.90
28863;DHT22;15994;51.796;13.006;2023-02-03T08:15:59;7.50;99.90
28863;DHT22;15994;51.796;13.006;2023-02-03T08:18:26;7.50;99.90
28863;DHT22;15994;51.796;13.006;2023-02-03T08:20:52;7.50;99.90
28863;DHT22;15994;51.796;13.006;2023-02-03T08:23:19;7.50;99.90
28863;DHT22;15994;51.796;13.006;2023-02-03T08:25:52;7.50;99.90
28863;DHT22;15994;51.796;13.006;2023-02-03T08:28:19;7.50;99.90
28863;DHT22;15994;51.796;13.006;2023-02-03T08:30:45;7.60;99.90
28863;DHT22;15994;51.796;13.006;2023-02-03T08:33:12;7.60;99.90
28863;DHT22;15994;51.796;13.006;2023-02-03T08:35:39;7.60;99.90
28863;DHT22;15994;51.796;13.006;2023-02-03T08:38:05;7.60;99.90
28863;DHT22;15994;51.796;13.006;2023-02-03T08:40:32;7.60;99.90
28863;DHT22;15994;51.796;13.006;2023-02-03T08:42:58;7.50;99.90
28863;DHT22;15994;51.796;13.006;2023-02-03T08:45:25;7.50;99.90
28863;DHT22;15994;51.796;13.006;2023-02-03T08:47:51;7.40;99.90
28863;DHT22;15994;51.796;13.006;2023-02-03T08:50:18;7.40;99.90
28863;DHT22;15994;51.796;13.006;2023-02-03T08:52:44;7.40;99.90
28863;DHT22;15994;51.796;13.006;2023-02-03T08:55:11;7.20;99.90
28863;DHT22;15994;51.796;13.006;2023-02-03T08:57:37;7.30;99.90
28863;DHT22;15994;51.796;13.006;2023-02-03T09:00:07;7.20;99.90
28863;DHT22;15994;51.796;13.006;2023-02-03T09:02:34;7.20;99.90
28863;DHT22;15994;51.796;13.006;2023-02-03T09:05:00;7.20;99.90
28863;DHT22;15994;51.796;13.006;2023-02-03T09:07:27;7.20;99.90
28863;DHT22;15994;51.796;13.006;2023-02-03T09:09:53;7.20;99.90
28863;DHT22;15994;51.796;13.006;2023-02-03T09:12:20;7.20;99.90
28863;DHT22;15994;51.796;13.006;2023-02-03T09:14:47;7.10;99.90
28863;DHT22;15994;51.796;13.006;2023-02-03T09:17:13;7.10;99.90
28863;DHT22;15994;51.796;13.006;2023-02-03T09:19:39;7.10;99.90
28863;DHT22;15994;51.796;13.006;2023-02-03T09:22:06;7.10;99.90
28863;DHT22;15994;51.796;13.006;2023-02-03T09:24:32;7.00;99.90
28863;DHT22;15994;51.796;13.006;2023-02-03T09:26:59;7.00;99.90
28863;DHT22;15994;51.796;13.006;2023-02-03T09:29:26;7.10;99.90
28863;DHT22;15994;51.796;13.006;2023-02-03T09:31:52;7.10;99.90
28863;DHT22;15994;51.796;13.006;2023-02-03T09:34:19;7.10;99.90
28863;DHT22;15994;51.796;13.006;2023-02-03T09:36:46;7.10;99.90
28863;DHT22;15994;51.796;13.006;2023-02-03T09:39:13;7.20;99.90
28863;DHT22;15994;51.796;13.006;2023-02-03T09:47:01;7.30;99.90
28863;DHT22;15994;51.796;13.006;2023-02-03T09:49:48;7.20;99.90
28863;DHT22;15994;51.796;13.006;2023-02-03T09:52:22;7.30;99.90
28863;DHT22;15994;51.796;13.006;2023-02-03T09:55:09;7.30;99.90
28863;DHT22;15994;51.796;13.006;2023-02-03T09:57:43;7.20;99.90
28863;DHT22;15994;51.796;13.006;2023-02-03T10:00:21;7.20;99.90
28863;DHT22;15994;51.796;13.006;2023-02-03T10:02:54;7.20;99.90
28863;DHT22;15994;51.796;13.006;2023-02-03T10:05:39;7.30;99.90
28863;DHT22;15994;51.796;13.006;2023-02-03T10:08:18;7.30;99.90
28863;DHT22;15994;51.796;13.006;2023-02-03T10:10:55;7.30;99.90
28863;DHT22;15994;51.796;13.006;2023-02-03T10:14:09;7.30;99.90
28863;DHT22;15994;51.796;13.006;2023-02-03T10:16:42;7.40;99.90
28863;DHT22;15994;51.796;13.006;2023-02-03T10:19:21;7.40;99.90
28863;DHT22;15994;51.796;13.006;2023-02-03T10:21:52;7.40;99.90
28863;DHT22;15994;51.796;13.006;2023-02-03T10:24:42;7.40;99.90
28863;DHT22;15994;51.796;13.006;2023-02-03T10:27:16;7.40;99.90
28863;DHT22;15994;51.796;13.006;2023-02-03T10:29:43;7.40;99.90
28863;DHT22;15994;51.796;13.006;2023-02-03T10:32:14;7.50;99.90
28863;DHT22;15994;51.796;13.006;2023-02-03T10:34:44;7.50;99.90
28863;DHT22;15994;51.796;13.006;2023-02-03T10:39:47;7.70;99.90
28863;DHT22;15994;51.796;13.006;2023-02-03T10:42:15;7.80;99.90
28863;DHT22;15994;51.796;13.006;2023-02-03T10:44:45;7.80;99.90
28863;DHT22;15994;51.796;13.006;2023-02-03T10:50:02;7.90;99.90
28863;DHT22;15994;51.796;13.006;2023-02-03T10:52:31;7.90;99.90
28863;DHT22;15994;51.796;13.006;2023-02-03T10:55:27;8.00;99.90
28863;DHT22;15994;51.796;13.006;2023-02-03T10:57:55;8.00;99.90
28863;DHT22;15994;51.796;13.006;2023-02-03T11:00:27;8.00;99.90
28863;DHT22;15994;51.796;13.006;2023-02-03T11:02:57;8.10;99.90
28863;DHT22;15994;51.796;13.006;2023-02-03T11:05:25;8.10;99.90
28863;DHT22;15994;51.796;13.006;2023-02-03T11:07:52;8.10;99.90
28863;DHT22;15994;51.796;13.006;2023-02-03T11:10:37;8.20;99.90
28863;DHT22;15994;51.796;13.006;2023-02-03T11:13:25;8.20;99.90
28863;DHT22;15994;51.796;13.006;2023-02-03T11:16:02;8.30;99.90
28863;DHT22;15994;51.796;13.006;2023-02-03T11:27:05;8.50;99.90
28863;DHT22;15994;51.796;13.006;2023-02-03T11:29:47;8.50;99.90
28863;DHT22;15994;51.796;13.006;2023-02-03T11:32:18;8.50;99.90
28863;DHT22;15994;51.796;13.006;2023-02-03T11:34:58;8.60;99.90
28863;DHT22;15994;51.796;13.006;2023-02-03T11:37:38;8.70;99.90
28863;DHT22;15994;51.796;13.006;2023-02-03T11:42:40;8.70;99.90
28863;DHT22;15994;51.796;13.006;2023-02-03T11:45:26;8.70;99.90
28863;DHT22;15994;51.796;13.006;2023-02-03T11:47:59;8.70;99.90
28863;DHT22;15994;51.796;13.006;2023-02-03T11:56:02;8.10;99.90
28863;DHT22;15994;51.796;13.006;2023-02-03T12:07:39;6.20;99.90
28863;DHT22;15994;51.796;13.006;2023-02-03T12:16:17;6.00;99.90
28863;DHT22;15994;51.796;13.006;2023-02-03T12:21:32;6.10;99.90
28863;DHT22;15994;51.796;13.006;2023-02-03T12:27:09;6.20;99.90
28863;DHT22;15994;51.796;13.006;2023-02-03T12:29:41;6.20;99.90
28863;DHT22;15994;51.796;13.006;2023-02-03T12:38:02;6.30;99.90
28863;DHT22;15994;51.796;13.006;2023-02-03T12:40:53;6.30;99.90
28863;DHT22;15994;51.796;13.006;2023-02-03T12:43:38;6.30;99.90
28863;DHT22;15994;51.796;13.006;2023-02-03T12:46:39;6.40;99.90
28863;DHT22;15994;51.796;13.006;2023-02-03T12:52:15;6.70;99.90
28863;DHT22;15994;51.796;13.006;2023-02-03T12:55:02;6.70;99.90
28863;DHT22;15994;51.796;13.006;2023-02-03T12:57:40;6.90;99.90
28863;DHT22;15994;51.796;13.006;2023-02-03T13:00:29;6.90;99.90
28863;DHT22;15994;51.796;13.006;2023-02-03T13:05:51;6.60;99.90
28863;DHT22;15994;51.796;13.006;2023-02-03T13:11:10;6.40;99.90
28863;DHT22;15994;51.796;13.006;2023-02-03T13:13:43;6.50;99.90
28863;DHT22;15994;51.796;13.006;2023-02-03T13:16:12;6.40;99.90
28863;DHT22;15994;51.796;13.006;2023-02-03T13:18:46;6.50;99.90
28863;DHT22;15994;51.796;13.006;2023-02-03T13:21:15;6.50;99.90
28863;DHT22;15994;51.796;13.006;2023-02-03T13:23:42;6.50;99.90
28863;DHT22;15994;51.796;13.006;2023-02-03T13:29:08;6.40;99.90
28863;DHT22;15994;51.796;13.006;2023-02-03T13:31:55;6.50;99.90
28863;DHT22;15994;51.796;13.006;2023-02-03T13:34:42;6.50;99.90
28863;DHT22;15994;51.796;13.006;2023-02-03T13:42:50;6.50;99.90
28863;DHT22;15994;51.796;13.006;2023-02-03T13:45:39;6.50;99.90
28863;DHT22;15994;51.796;13.006;2023-02-03T13:48:12;6.40;99.90
28863;DHT22;15994;51.796;13.006;2023-02-03T13:50:40;6.40;99.90
28863;DHT22;15994;51.796;13.006;2023-02-03T13:53:34;6.50;99.90
28863;DHT22;15994;51.796;13.006;2023-02-03T13:56:03;6.50;99.90
28863;DHT22;15994;51.796;13.006;2023-02-03T14:01:05;6.50;99.90
28863;DHT22;15994;51.796;13.006;2023-02-03T14:06:02;6.50;99.90
28863;DHT22;15994;51.796;13.006;2023-02-03T14:16:42;6.30;99.90
28863;DHT22;15994;51.796;13.006;2023-02-03T14:22:03;6.10;99.90
28863;DHT22;15994;51.796;13.006;2023-02-03T14:24:37;6.30;99.90
28863;DHT22;15994;51.796;13.006;2023-02-03T14:27:15;6.20;99.90
28863;DHT22;15994;51.796;13.006;2023-02-03T14:29:42;6.20;99.90
28863;DHT22;15994;51.796;13.006;2023-02-03T14:32:10;6.20;99.90
28863;DHT22;15994;51.796;13.006;2023-02-03T14:34:47;6.20;99.90
28863;DHT22;15994;51.796;13.006;2023-02-03T14:37:27;6.30;99.90
28863;DHT22;15994;51.796;13.006;2023-02-03T14:42:39;6.30;99.90
28863;DHT22;15994;51.796;13.006;2023-02-03T14:45:41;6.30;99.90
28863;DHT22;15994;51.796;13.006;2023-02-03T14:50:52;6.50;99.90
28863;DHT22;15994;51.796;13.006;2023-02-03T15:00:00;6.40;99.90
28863;DHT22;15994;51.796;13.006;2023-02-03T15:02:28;6.50;99.90
28863;DHT22;15994;51.796;13.006;2023-02-03T15:07:41;6.40;99.90
28863;DHT22;15994;51.796;13.006;2023-02-03T15:10:14;6.40;99.90
28863;DHT22;15994;51.796;13.006;2023-02-03T15:12:52;6.30;99.90
28863;DHT22;15994;51.796;13.006;2023-02-03T15:15:24;6.30;99.90
28863;DHT22;15994;51.796;13.006;2023-02-03T15:17:54;6.40;99.90
28863;DHT22;15994;51.796;13.006;2023-02-03T15:20:39;6.40;99.90
28863;DHT22;15994;51.796;13.006;2023-02-03T15:25:55;6.50;99.90
28863;DHT22;15994;51.796;13.006;2023-02-03T15:28:23;6.50;99.90
28863;DHT22;15994;51.796;13.006;2023-02-03T15:31:18;6.50;99.90
28863;DHT22;15994;51.796;13.006;2023-02-03T15:33:46;6.50;99.90
28863;DHT22;15994;51.796;13.006;2023-02-03T15:36:26;6.50;99.90
28863;DHT22;15994;51.796;13.006;2023-02-03T15:39:07;6.50;99.90
28863;DHT22;15994;51.796;13.006;2023-02-03T15:41:36;6.70;99.90
28863;DHT22;15994;51.796;13.006;2023-02-03T15:44:11;6.70;99.90
28863;DHT22;15994;51.796;13.006;2023-02-03T15:46:44;6.70;99.90
28863;DHT22;15994;51.796;13.006;2023-02-03T15:49:27;6.70;99.90
28863;DHT22;15994;51.796;13.006;2023-02-03T15:52:06;6.80;99.90
28863;DHT22;15994;51.796;13.006;2023-02-03T15:54:37;6.80;99.90
28863;DHT22;15994;51.796;13.006;2023-02-03T15:59:43;6.80;99.90
28863;DHT22;15994;51.796;13.006;2023-02-03T16:02:18;6.80;99.90
28863;DHT22;15994;51.796;13.006;2023-02-03T16:04:47;6.70;99.90
28863;DHT22;15994;51.796;13.006;2023-02-03T16:07:20;6.70;99.90
28863;DHT22;15994;51.796;13.006;2023-02-03T16:09:52;6.80;99.90
28863;DHT22;15994;51.796;13.006;2023-02-03T16:12:27;6.90;99.90
28863;DHT22;15994;51.796;13.006;2023-02-03T16:14:56;7.00;99.90
28863;DHT22;15994;51.796;13.006;2023-02-03T16:17:35;7.00;99.90
28863;DHT22;15994;51.796;13.006;2023-02-03T16:22:44;7.10;99.90
28863;DHT22;15994;51.796;13.006;2023-02-03T16:25:18;7.20;99.90
28863;DHT22;15994;51.796;13.006;2023-02-03T16:33:36;7.10;99.90
28863;DHT22;15994;51.796;13.006;2023-02-03T16:36:20;7.10;99.90
28863;DHT22;15994;51.796;13.006;2023-02-03T16:39:09;7.20;99.90
28863;DHT22;15994;51.796;13.006;2023-02-03T16:41:58;7.30;99.90
28863;DHT22;15994;51.796;13.006;2023-02-03T16:44:43;7.30;99.90
28863;DHT22;15994;51.796;13.006;2023-02-03T16:47:29;7.20;99.90
28863;DHT22;15994;51.796;13.006;2023-02-03T16:50:18;7.30;99.90
28863;DHT22;15994;51.796;13.006;2023-02-03T16:53:03;7.30;99.90
28863;DHT22;15994;51.796;13.006;2023-02-03T16:55:29;7.20;99.90
28863;DHT22;15994;51.796;13.006;2023-02-03T16:57:56;7.20;99.90
28863;DHT22;15994;51.796;13.006;2023-02-03T17:00:23;7.30;99.90
28863;DHT22;15994;51.796;13.006;2023-02-03T17:02:50;7.30;99.90
28863;DHT22;15994;51.796;13.006;2023-02-03T17:05:17;7.30;99.90
28863;DHT22;15994;51.796;13.006;2023-02-03T17:07:44;7.20;99.90
28863;DHT22;15994;51.796;13.006;2023-02-03T17:10:11;7.00;99.90
28863;DHT22;15994;51.796;13.006;2023-02-03T17:12:38;6.80;99.90
28863;DHT22;15994;51.796;13.006;2023-02-03T17:15:05;6.70;99.90
28863;DHT22;15994;51.796;13.006;2023-02-03T17:17:32;6.70;99.90
28863;DHT22;15994;51.796;13.006;2023-02-03T17:19:59;6.60;99.90
28863;DHT22;15994;51.796;13.006;2023-02-03T17:22:26;6.70;99.90
28863;DHT22;15994;51.796;13.006;2023-02-03T17:24:53;6.70;99.90
28863;DHT22;15994;51.796;13.006;2023-02-03T17:27:20;6.80;99.90
28863;DHT22;15994;51.796;13.006;2023-02-03T17:29:46;6.80;99.90
28863;DHT22;15994;51.796;13.006;2023-02-03T17:32:12;6.80;99.90
28863;DHT22;15994;51.796;13.006;2023-02-03T17:34:41;7.00;99.90
28863;DHT22;15994;51.796;13.006;2023-02-03T17:37:08;7.00;99.90
28863;DHT22;15994;51.796;13.006;2023-02-03T17:39:34;7.00;99.90
28863;DHT22;15994;51.796;13.006;2023-02-03T17:42:01;7.00;99.90
28863;DHT22;15994;51.796;13.006;2023-02-03T17:44:27;7.00;99.90
28863;DHT22;15994;51.796;13.006;2023-02-03T17:46:54;7.10;99.90
28863;DHT22;15994;51.796;13.006;2023-02-03T17:49:21;7.10;99.90
28863;DHT22;15994;51.796;13.006;2023-02-03T17:51:47;7.10;99.90
28863;DHT22;15994;51.796;13.006;2023-02-03T17:54:14;7.10;99.90
28863;DHT22;15994;51.796;13.006;2023-02-03T17:56:41;7.10;99.90
28863;DHT22;15994;51.796;13.006;2023-02-03T17:59:11;7.20;99.90
28863;DHT22;15994;51.796;13.006;2023-02-03T18:01:38;7.20;99.90
28863;DHT22;15994;51.796;13.006;2023-02-03T18:04:05;7.20;99.90